sensor_id;sensor_type;location;lat;lon;timestamp;temperature;humidity
58933;DHT22;44716;51.022;6.818;2024-03-23T00:54:40;22.90;60.70
58933;DHT22;44716;51.022;6.818;2024-03-23T00:57:05;22.90;60.80
58933;DHT22;44716;51.022;6.818;2024-03-23T00:59:30;22.90;60.90
58933;DHT22;44716;51.022;6.818;2024-03-23T01:01:56;22.80;60.90
58933;DHT22;44716;51.022;6.818;2024-03-23T01:04:21;22.90;60.90
58933;DHT22;44716;51.022;6.818;2024-03-23T01:06:47;22.80;60.90
58933;DHT22;44716;51.022;6.818;2024-03-23T01:09:13;22.80;60.90
58933;DHT22;44716;51.022;6.818;2024-03-23T01:11:38;22.80;61.10
58933;DHT22;44716;51.022;6.818;2024-03-23T01:14:05;22.80;61.10
58933;DHT22;44716;51.022;6.818;2024-03-23T01:16:30;22.80;61.20
58933;DHT22;44716;51.022;6.818;2024-03-23T01:18:56;22.70;61.20
58933;DHT22;44716;51.022;6.818;2024-03-23T01:21:21;22.70;61.30
58933;DHT22;44716;51.022;6.818;2024-03-23T01:23:47;22.80;61.30
58933;DHT22;44716;51.022;6.818;2024-03-23T01:26:12;22.70;61.30
58933;DHT22;44716;51.022;6.818;2024-03-23T01:28:38;22.70;61.40
58933;DHT22;44716;51.022;6.818;2024-03-23T01:31:03;22.70;61.50
58933;DHT22;44716;51.022;6.818;2024-03-23T01:33:29;22.70;61.50
58933;DHT22;44716;51.022;6.818;2024-03-23T01:35:54;22.60;61.60
58933;DHT22;44716;51.022;6.818;2024-03-23T01:38:20;22.60;61.60
58933;DHT22;44716;51.022;6.818;2024-03-23T01:40:45;22.60;61.70
58933;DHT22;44716;51.022;6.818;2024-03-23T01:43:11;22.60;61.60
58933;DHT22;44716;51.022;6.818;2024-03-23T01:45:37;22.60;62.50
58933;DHT22;44716;51.022;6.818;2024-03-23T01:48:03;22.60;61.80
58933;DHT22;44716;51.022;6.818;2024-03-23T01:50:28;22.60;61.70
58933;DHT22;44716;51.022;6.818;2024-03-23T01:52:55;22.60;61.80
58933;DHT22;44716;51.022;6.818;2024-03-23T01:55:21;22.50;61.80
58933;DHT22;44716;51.022;6.818;2024-03-23T01:57:47;22.60;61.90
58933;DHT22;44716;51.022;6.818;2024-03-23T02:00:13;22.50;61.80
58933;DHT22;44716;51.022;6.818;2024-03-23T02:02:44;22.50;61.80
58933;DHT22;44716;51.022;6.818;2024-03-23T02:05:11;22.50;62.00
58933;DHT22;44716;51.022;6.818;2024-03-23T02:07:37;22.50;61.90
58933;DHT22;44716;51.022;6.818;2024-03-23T02:10:03;22.50;61.80
58933;DHT22;44716;51.022;6.818;2024-03-23T02:12:28;22.50;61.90
58933;DHT22;44716;51.022;6.818;2024-03-23T02:14:54;22.50;62.00
58933;DHT22;44716;51.022;6.818;2024-03-23T02:17:19;22.50;62.00
58933;DHT22;44716;51.022;6.818;2024-03-23T02:19:45;22.50;62.00
58933;DHT22;44716;51.022;6.818;2024-03-23T02:22:11;22.50;62.10
58933;DHT22;44716;51.022;6.818;2024-03-23T02:24:37;22.50;62.00
58933;DHT22;44716;51.022;6.818;2024-03-23T02:27:02;22.50;62.10
58933;DHT22;44716;51.022;6.818;2024-03-23T02:29:28;22.40;62.00
58933;DHT22;44716;51.022;6.818;2024-03-23T02:31:53;22.40;62.10
58933;DHT22;44716;51.022;6.818;2024-03-23T02:34:19;22.40;62.20
58933;DHT22;44716;51.022;6.818;2024-03-23T02:36:44;22.40;62.20
58933;DHT22;44716;51.022;6.818;2024-03-23T02:39:10;22.40;62.00
58933;DHT22;44716;51.022;6.818;2024-03-23T02:41:36;22.40;62.20
58933;DHT22;44716;51.022;6.818;2024-03-23T02:44:02;22.30;62.10
58933;DHT22;44716;51.022;6.818;2024-03-23T02:46:27;22.40;62.20
58933;DHT22;44716;51.022;6.818;2024-03-23T02:48:53;22.40;62.20
58933;DHT22;44716;51.022;6.818;2024-03-23T02:51:18;22.40;62.20
58933;DHT22;44716;51.022;6.818;2024-03-23T02:53:43;22.30;62.10
58933;DHT22;44716;51.022;6.818;2024-03-23T02:56:09;22.30;62.00
58933;DHT22;44716;51.022;6.818;2024-03-23T02:58:39;22.40;62.10
58933;DHT22;44716;51.022;6.818;2024-03-23T03:01:04;22.30;62.20
58933;DHT22;44716;51.022;6.818;2024-03-23T03:03:30;22.30;62.20
58933;DHT22;44716;51.022;6.818;2024-03-23T03:05:55;22.30;62.00
58933;DHT22;44716;51.022;6.818;2024-03-23T03:08:21;22.30;62.20
58933;DHT22;44716;51.022;6.818;2024-03-23T03:10:47;22.30;62.20
58933;DHT22;44716;51.022;6.818;2024-03-23T03:13:12;22.30;62.20
58933;DHT22;44716;51.022;6.818;2024-03-23T03:15:39;22.30;62.10
58933;DHT22;44716;51.022;6.818;2024-03-23T03:18:05;22.30;62.20
58933;DHT22;44716;51.022;6.818;2024-03-23T03:20:30;22.30;62.10
58933;DHT22;44716;51.022;6.818;2024-03-23T03:22:57;22.30;62.20
58933;DHT22;44716;51.022;6.818;2024-03-23T03:25:22;22.30;62.30
58933;DHT22;44716;51.022;6.818;2024-03-23T03:27:48;22.30;62.20
58933;DHT22;44716;51.022;6.818;2024-03-23T03:30:13;22.30;62.20
58933;DHT22;44716;51.022;6.818;2024-03-23T03:32:39;22.20;62.20
58933;DHT22;44716;51.022;6.818;2024-03-23T03:35:04;22.20;62.20
58933;DHT22;44716;51.022;6.818;2024-03-23T03:37:30;22.20;62.20
58933;DHT22;44716;51.022;6.818;2024-03-23T03:39:55;22.20;62.20
58933;DHT22;44716;51.022;6.818;2024-03-23T03:42:21;22.20;62.20
58933;DHT22;44716;51.022;6.818;2024-03-23T03:44:46;22.20;62.20
58933;DHT22;44716;51.022;6.818;2024-03-23T03:47:12;22.20;62.20
58933;DHT22;44716;51.022;6.818;2024-03-23T03:49:37;22.20;62.20
58933;DHT22;44716;51.022;6.818;2024-03-23T03:52:03;22.20;62.20
58933;DHT22;44716;51.022;6.818;2024-03-23T03:54:28;22.20;62.20
58933;DHT22;44716;51.022;6.818;2024-03-23T03:56:54;22.20;62.20
58933;DHT22;44716;51.022;6.818;2024-03-23T03:59:19;22.20;62.30
58933;DHT22;44716;51.022;6.818;2024-03-23T04:01:45;22.20;62.30
58933;DHT22;44716;51.022;6.818;2024-03-23T04:04:11;22.20;62.30
58933;DHT22;44716;51.022;6.818;2024-03-23T04:06:36;22.20;62.40
58933;DHT22;44716;51.022;6.818;2024-03-23T04:09:02;22.20;62.30
58933;DHT22;44716;51.022;6.818;2024-03-23T04:11:27;22.10;62.20
58933;DHT22;44716;51.022;6.818;2024-03-23T04:13:53;22.20;62.30
58933;DHT22;44716;51.022;6.818;2024-03-23T04:16:28;22.20;62.30
58933;DHT22;44716;51.022;6.818;2024-03-23T04:18:54;22.10;62.00
58933;DHT22;44716;51.022;6.818;2024-03-23T04:21:19;22.20;62.20
58933;DHT22;44716;51.022;6.818;2024-03-23T04:23:45;22.20;62.00
58933;DHT22;44716;51.022;6.818;2024-03-23T04:26:10;22.20;62.00
58933;DHT22;44716;51.022;6.818;2024-03-23T04:28:36;22.10;62.00
58933;DHT22;44716;51.022;6.818;2024-03-23T04:31:04;22.10;62.10
58933;DHT22;44716;51.022;6.818;2024-03-23T04:33:30;22.10;62.10
58933;DHT22;44716;51.022;6.818;2024-03-23T04:35:56;22.10;62.10
58933;DHT22;44716;51.022;6.818;2024-03-23T04:38:22;22.10;62.20
58933;DHT22;44716;51.022;6.818;2024-03-23T04:40:55;22.10;62.20
58933;DHT22;44716;51.022;6.818;2024-03-23T04:43:20;22.10;62.10
58933;DHT22;44716;51.022;6.818;2024-03-23T04:45:45;22.10;62.10
58933;DHT22;44716;51.022;6.818;2024-03-23T04:48:11;22.10;62.20
58933;DHT22;44716;51.022;6.818;2024-03-23T04:50:37;22.10;62.20
58933;DHT22;44716;51.022;6.818;2024-03-23T04:53:02;22.10;62.20
58933;DHT22;44716;51.022;6.818;2024-03-23T04:55:28;22.10;62.20
58933;DHT22;44716;51.022;6.818;2024-03-23T04:57:53;22.10;62.40
58933;DHT22;44716;51.022;6.818;2024-03-23T05:00:19;22.00;62.20
58933;DHT22;44716;51.022;6.818;2024-03-23T05:02:44;22.10;62.20
58933;DHT22;44716;51.022;6.818;2024-03-23T05:05:10;22.00;62.10
58933;DHT22;44716;51.022;6.818;2024-03-23T05:07:36;22.10;62.20
58933;DHT22;44716;51.022;6.818;2024-03-23T05:10:02;22.00;62.00
58933;DHT22;44716;51.022;6.818;2024-03-23T05:12:27;22.00;62.20
58933;DHT22;44716;51.022;6.818;2024-03-23T05:14:53;22.00;62.20
58933;DHT22;44716;51.022;6.818;2024-03-23T05:17:18;22.00;62.20
58933;DHT22;44716;51.022;6.818;2024-03-23T05:19:43;22.00;62.00
58933;DHT22;44716;51.022;6.818;2024-03-23T05:22:09;22.00;62.10
58933;DHT22;44716;51.022;6.818;2024-03-23T05:24:35;22.00;62.10
58933;DHT22;44716;51.022;6.818;2024-03-23T05:27:00;22.00;62.00
58933;DHT22;44716;51.022;6.818;2024-03-23T05:29:26;22.10;62.70
58933;DHT22;44716;51.022;6.818;2024-03-23T05:31:52;22.00;61.80
58933;DHT22;44716;51.022;6.818;2024-03-23T05:34:17;22.00;62.00
58933;DHT22;44716;51.022;6.818;2024-03-23T05:36:43;22.00;61.90
58933;DHT22;44716;51.022;6.818;2024-03-23T05:39:08;22.00;61.90
58933;DHT22;44716;51.022;6.818;2024-03-23T05:41:34;22.00;61.90
58933;DHT22;44716;51.022;6.818;2024-03-23T05:44:02;22.00;61.80
58933;DHT22;44716;51.022;6.818;2024-03-23T05:46:27;22.00;61.90
58933;DHT22;44716;51.022;6.818;2024-03-23T05:48:53;22.00;62.00
58933;DHT22;44716;51.022;6.818;2024-03-23T05:51:19;21.90;62.00
58933;DHT22;44716;51.022;6.818;2024-03-23T05:53:44;21.90;62.00
58933;DHT22;44716;51.022;6.818;2024-03-23T05:56:10;21.90;62.10
58933;DHT22;44716;51.022;6.818;2024-03-23T05:58:35;21.90;62.10
58933;DHT22;44716;51.022;6.818;2024-03-23T06:01:01;21.90;62.90
58933;DHT22;44716;51.022;6.818;2024-03-23T06:03:27;21.90;62.10
58933;DHT22;44716;51.022;6.818;2024-03-23T06:05:53;21.90;62.10
58933;DHT22;44716;51.022;6.818;2024-03-23T06:08:19;21.90;62.00
58933;DHT22;44716;51.022;6.818;2024-03-23T06:10:45;21.90;62.00
58933;DHT22;44716;51.022;6.818;2024-03-23T06:13:11;21.80;62.00
58933;DHT22;44716;51.022;6.818;2024-03-23T06:15:37;21.90;62.00
58933;DHT22;44716;51.022;6.818;2024-03-23T06:18:03;21.80;62.00
58933;DHT22;44716;51.022;6.818;2024-03-23T06:20:30;21.90;62.00
58933;DHT22;44716;51.022;6.818;2024-03-23T06:22:55;21.90;62.00
58933;DHT22;44716;51.022;6.818;2024-03-23T06:25:21;21.80;62.00
58933;DHT22;44716;51.022;6.818;2024-03-23T06:27:46;21.80;62.00
58933;DHT22;44716;51.022;6.818;2024-03-23T06:30:12;21.90;62.00
58933;DHT22;44716;51.022;6.818;2024-03-23T06:32:37;21.80;62.00
58933;DHT22;44716;51.022;6.818;2024-03-23T06:35:03;21.80;62.30
58933;DHT22;44716;51.022;6.818;2024-03-23T06:37:35;21.80;62.10
58933;DHT22;44716;51.022;6.818;2024-03-23T06:40:01;21.80;62.00
58933;DHT22;44716;51.022;6.818;2024-03-23T06:42:26;21.80;62.00
58933;DHT22;44716;51.022;6.818;2024-03-23T06:44:52;21.80;62.00
58933;DHT22;44716;51.022;6.818;2024-03-23T06:47:17;21.80;62.00
58933;DHT22;44716;51.022;6.818;2024-03-23T06:49:43;21.80;62.20
58933;DHT22;44716;51.022;6.818;2024-03-23T06:52:08;21.80;62.10
58933;DHT22;44716;51.022;6.818;2024-03-23T06:54:34;21.80;62.10
58933;DHT22;44716;51.022;6.818;2024-03-23T06:56:59;21.80;62.10
58933;DHT22;44716;51.022;6.818;2024-03-23T06:59:25;21.80;62.20
58933;DHT22;44716;51.022;6.818;2024-03-23T07:01:51;21.80;62.10
58933;DHT22;44716;51.022;6.818;2024-03-23T07:04:16;21.80;62.20
58933;DHT22;44716;51.022;6.818;2024-03-23T07:06:42;21.80;62.00
58933;DHT22;44716;51.022;6.818;2024-03-23T07:09:08;21.80;62.30
58933;DHT22;44716;51.022;6.818;2024-03-23T07:11:33;21.80;62.00
58933;DHT22;44716;51.022;6.818;2024-03-23T07:13:59;21.80;62.90
58933;DHT22;44716;51.022;6.818;2024-03-23T07:16:24;21.80;62.00
58933;DHT22;44716;51.022;6.818;2024-03-23T07:18:51;21.80;62.00
58933;DHT22;44716;51.022;6.818;2024-03-23T07:21:17;21.80;62.00
58933;DHT22;44716;51.022;6.818;2024-03-23T07:23:42;21.80;61.90
58933;DHT22;44716;51.022;6.818;2024-03-23T07:26:10;21.80;61.70
58933;DHT22;44716;51.022;6.818;2024-03-23T07:28:36;21.90;61.60
58933;DHT22;44716;51.022;6.818;2024-03-23T07:31:02;21.80;61.60
58933;DHT22;44716;51.022;6.818;2024-03-23T07:33:28;21.80;61.80
58933;DHT22;44716;51.022;6.818;2024-03-23T07:35:53;21.80;61.70
58933;DHT22;44716;51.022;6.818;2024-03-23T07:38:19;21.80;61.80
58933;DHT22;44716;51.022;6.818;2024-03-23T07:40:44;21.80;61.70
58933;DHT22;44716;51.022;6.818;2024-03-23T07:43:10;21.80;61.60
58933;DHT22;44716;51.022;6.818;2024-03-23T07:45:35;21.80;61.70
58933;DHT22;44716;51.022;6.818;2024-03-23T07:48:03;21.80;61.60
58933;DHT22;44716;51.022;6.818;2024-03-23T07:50:28;21.80;61.60
58933;DHT22;44716;51.022;6.818;2024-03-23T07:52:54;21.80;61.60
58933;DHT22;44716;51.022;6.818;2024-03-23T07:55:19;21.80;61.60
58933;DHT22;44716;51.022;6.818;2024-03-23T07:57:45;21.80;61.70
58933;DHT22;44716;51.022;6.818;2024-03-23T08:00:10;21.80;61.60
58933;DHT22;44716;51.022;6.818;2024-03-23T08:02:36;21.80;61.60
58933;DHT22;44716;51.022;6.818;2024-03-23T08:05:01;21.80;61.60
58933;DHT22;44716;51.022;6.818;2024-03-23T08:07:27;21.80;61.60
58933;DHT22;44716;51.022;6.818;2024-03-23T08:09:53;21.80;61.70
58933;DHT22;44716;51.022;6.818;2024-03-23T08:12:19;21.80;61.60
58933;DHT22;44716;51.022;6.818;2024-03-23T08:14:45;21.80;61.60
58933;DHT22;44716;51.022;6.818;2024-03-23T08:17:10;21.80;61.50
58933;DHT22;44716;51.022;6.818;2024-03-23T08:19:36;21.80;61.60
58933;DHT22;44716;51.022;6.818;2024-03-23T08:22:01;21.80;61.60
58933;DHT22;44716;51.022;6.818;2024-03-23T08:24:27;21.80;61.50
58933;DHT22;44716;51.022;6.818;2024-03-23T08:26:54;21.80;61.50
58933;DHT22;44716;51.022;6.818;2024-03-23T08:29:19;21.80;61.60
58933;DHT22;44716;51.022;6.818;2024-03-23T08:31:45;21.80;61.50
58933;DHT22;44716;51.022;6.818;2024-03-23T08:34:10;21.80;61.50
58933;DHT22;44716;51.022;6.818;2024-03-23T08:36:36;21.80;61.30
58933;DHT22;44716;51.022;6.818;2024-03-23T08:39:01;21.90;61.30
58933;DHT22;44716;51.022;6.818;2024-03-23T08:41:27;21.90;61.30
58933;DHT22;44716;51.022;6.818;2024-03-23T08:43:52;21.90;61.20
58933;DHT22;44716;51.022;6.818;2024-03-23T08:46:18;21.90;61.10
58933;DHT22;44716;51.022;6.818;2024-03-23T08:48:44;21.90;60.90
58933;DHT22;44716;51.022;6.818;2024-03-23T08:51:11;21.90;61.00
58933;DHT22;44716;51.022;6.818;2024-03-23T08:53:37;21.90;60.90
58933;DHT22;44716;51.022;6.818;2024-03-23T08:56:03;22.00;61.00
58933;DHT22;44716;51.022;6.818;2024-03-23T08:58:29;21.90;60.90
58933;DHT22;44716;51.022;6.818;2024-03-23T09:00:55;21.90;61.00
58933;DHT22;44716;51.022;6.818;2024-03-23T09:03:22;21.90;61.10
58933;DHT22;44716;51.022;6.818;2024-03-23T09:05:47;21.90;61.10
58933;DHT22;44716;51.022;6.818;2024-03-23T09:08:13;21.90;61.20
58933;DHT22;44716;51.022;6.818;2024-03-23T09:10:39;21.80;61.20
58933;DHT22;44716;51.022;6.818;2024-03-23T09:13:05;21.90;61.30
58933;DHT22;44716;51.022;6.818;2024-03-23T09:15:30;21.90;61.20
58933;DHT22;44716;51.022;6.818;2024-03-23T09:17:58;21.90;61.10
58933;DHT22;44716;51.022;6.818;2024-03-23T09:20:24;21.90;61.00
58933;DHT22;44716;51.022;6.818;2024-03-23T09:22:49;21.90;61.00
58933;DHT22;44716;51.022;6.818;2024-03-23T09:25:14;21.90;61.80
58933;DHT22;44716;51.022;6.818;2024-03-23T09:27:40;21.90;61.00
58933;DHT22;44716;51.022;6.818;2024-03-23T09:30:06;21.80;60.90
58933;DHT22;44716;51.022;6.818;2024-03-23T09:32:31;21.90;60.90
58933;DHT22;44716;51.022;6.818;2024-03-23T09:34:57;21.90;60.90
58933;DHT22;44716;51.022;6.818;2024-03-23T09:37:22;21.90;61.10
58933;DHT22;44716;51.022;6.818;2024-03-23T09:39:48;21.80;61.10
58933;DHT22;44716;51.022;6.818;2024-03-23T09:42:13;21.90;61.30
58933;DHT22;44716;51.022;6.818;2024-03-23T09:44:40;21.90;60.90
58933;DHT22;44716;51.022;6.818;2024-03-23T09:47:05;21.80;60.80
58933;DHT22;44716;51.022;6.818;2024-03-23T09:49:32;21.80;61.00
58933;DHT22;44716;51.022;6.818;2024-03-23T09:52:02;21.80;61.00
58933;DHT22;44716;51.022;6.818;2024-03-23T09:54:27;21.90;61.10
58933;DHT22;44716;51.022;6.818;2024-03-23T09:56:53;21.80;60.80
58933;DHT22;44716;51.022;6.818;2024-03-23T09:59:18;21.80;60.70
58933;DHT22;44716;51.022;6.818;2024-03-23T10:01:44;21.80;61.00
58933;DHT22;44716;51.022;6.818;2024-03-23T10:04:09;21.80;61.20
58933;DHT22;44716;51.022;6.818;2024-03-23T10:06:35;21.90;61.20
58933;DHT22;44716;51.022;6.818;2024-03-23T10:09:02;21.90;61.10
58933;DHT22;44716;51.022;6.818;2024-03-23T10:11:27;22.00;60.90
58933;DHT22;44716;51.022;6.818;2024-03-23T10:13:54;22.00;60.50
58933;DHT22;44716;51.022;6.818;2024-03-23T10:16:22;22.00;60.20
58933;DHT22;44716;51.022;6.818;2024-03-23T10:18:48;22.10;60.00
58933;DHT22;44716;51.022;6.818;2024-03-23T10:21:14;22.10;59.80
58933;DHT22;44716;51.022;6.818;2024-03-23T10:23:40;22.10;59.90
58933;DHT22;44716;51.022;6.818;2024-03-23T10:31:16;22.30;59.70
58933;DHT22;44716;51.022;6.818;2024-03-23T10:33:48;22.30;59.50
58933;DHT22;44716;51.022;6.818;2024-03-23T10:36:14;22.30;59.30
58933;DHT22;44716;51.022;6.818;2024-03-23T10:38:41;22.30;59.30
58933;DHT22;44716;51.022;6.818;2024-03-23T10:41:10;22.30;59.00
58933;DHT22;44716;51.022;6.818;2024-03-23T10:43:36;22.40;58.80
58933;DHT22;44716;51.022;6.818;2024-03-23T10:46:02;22.40;58.20
58933;DHT22;44716;51.022;6.818;2024-03-23T10:48:27;22.40;58.00
58933;DHT22;44716;51.022;6.818;2024-03-23T10:50:53;22.40;58.10
58933;DHT22;44716;51.022;6.818;2024-03-23T10:53:19;22.50;58.30
58933;DHT22;44716;51.022;6.818;2024-03-23T10:55:45;22.40;58.50
58933;DHT22;44716;51.022;6.818;2024-03-23T10:58:10;22.40;58.50
58933;DHT22;44716;51.022;6.818;2024-03-23T11:00:38;22.40;58.60
58933;DHT22;44716;51.022;6.818;2024-03-23T11:06:02;22.40;58.70
58933;DHT22;44716;51.022;6.818;2024-03-23T11:08:38;22.40;58.80
58933;DHT22;44716;51.022;6.818;2024-03-23T11:11:22;22.40;58.80
58933;DHT22;44716;51.022;6.818;2024-03-23T11:13:50;22.30;58.80
58933;DHT22;44716;51.022;6.818;2024-03-23T11:18:42;22.30;58.90
58933;DHT22;44716;51.022;6.818;2024-03-23T11:21:09;22.30;59.00
58933;DHT22;44716;51.022;6.818;2024-03-23T11:23:34;22.30;59.00
58933;DHT22;44716;51.022;6.818;2024-03-23T11:26:00;22.30;59.00
58933;DHT22;44716;51.022;6.818;2024-03-23T11:28:26;22.30;59.10
58933;DHT22;44716;51.022;6.818;2024-03-23T11:30:51;22.30;59.10
58933;DHT22;44716;51.022;6.818;2024-03-23T11:33:17;22.30;59.10
58933;DHT22;44716;51.022;6.818;2024-03-23T11:35:42;22.20;59.20
58933;DHT22;44716;51.022;6.818;2024-03-23T11:38:14;22.20;59.20
58933;DHT22;44716;51.022;6.818;2024-03-23T11:40:43;22.20;59.20
58933;DHT22;44716;51.022;6.818;2024-03-23T11:45:39;22.20;59.40
58933;DHT22;44716;51.022;6.818;2024-03-23T11:48:09;22.20;59.50
58933;DHT22;44716;51.022;6.818;2024-03-23T11:50:36;22.20;59.70
58933;DHT22;44716;51.022;6.818;2024-03-23T11:55:45;22.20;59.80
58933;DHT22;44716;51.022;6.818;2024-03-23T11:58:11;22.20;59.90
58933;DHT22;44716;51.022;6.818;2024-03-23T12:00:36;22.10;59.70
58933;DHT22;44716;51.022;6.818;2024-03-23T12:03:02;22.10;59.70
58933;DHT22;44716;51.022;6.818;2024-03-23T12:05:28;22.10;59.60
58933;DHT22;44716;51.022;6.818;2024-03-23T12:07:55;22.10;59.50
58933;DHT22;44716;51.022;6.818;2024-03-23T12:10:20;22.10;59.40
58933;DHT22;44716;51.022;6.818;2024-03-23T12:12:46;22.10;58.80
58933;DHT22;44716;51.022;6.818;2024-03-23T12:15:11;22.10;58.90
58933;DHT22;44716;51.022;6.818;2024-03-23T12:17:38;22.10;59.00
58933;DHT22;44716;51.022;6.818;2024-03-23T12:20:03;22.10;59.30
58933;DHT22;44716;51.022;6.818;2024-03-23T12:22:29;22.10;59.20
58933;DHT22;44716;51.022;6.818;2024-03-23T12:24:55;22.10;59.30
58933;DHT22;44716;51.022;6.818;2024-03-23T12:27:21;22.10;59.40
58933;DHT22;44716;51.022;6.818;2024-03-23T12:29:46;22.10;59.30
58933;DHT22;44716;51.022;6.818;2024-03-23T12:32:12;22.10;59.40
58933;DHT22;44716;51.022;6.818;2024-03-23T12:34:38;22.00;59.30
58933;DHT22;44716;51.022;6.818;2024-03-23T12:37:04;22.00;59.30
58933;DHT22;44716;51.022;6.818;2024-03-23T12:39:29;22.00;59.40
58933;DHT22;44716;51.022;6.818;2024-03-23T12:41:55;22.00;59.40
58933;DHT22;44716;51.022;6.818;2024-03-23T12:44:20;22.00;59.50
58933;DHT22;44716;51.022;6.818;2024-03-23T12:46:46;22.00;59.50
58933;DHT22;44716;51.022;6.818;2024-03-23T12:49:12;22.00;59.70
58933;DHT22;44716;51.022;6.818;2024-03-23T12:51:37;22.00;59.80
58933;DHT22;44716;51.022;6.818;2024-03-23T12:54:03;22.00;59.80
58933;DHT22;44716;51.022;6.818;2024-03-23T12:56:29;21.90;59.90
58933;DHT22;44716;51.022;6.818;2024-03-23T12:58:54;22.00;60.00
58933;DHT22;44716;51.022;6.818;2024-03-23T13:01:25;22.00;60.00
58933;DHT22;44716;51.022;6.818;2024-03-23T13:03:50;22.00;60.60
58933;DHT22;44716;51.022;6.818;2024-03-23T13:06:16;22.00;59.80
58933;DHT22;44716;51.022;6.818;2024-03-23T13:08:44;22.00;59.80
58933;DHT22;44716;51.022;6.818;2024-03-23T13:11:09;22.00;59.80
58933;DHT22;44716;51.022;6.818;2024-03-23T13:13:36;22.00;59.80
58933;DHT22;44716;51.022;6.818;2024-03-23T13:16:01;22.00;59.80
58933;DHT22;44716;51.022;6.818;2024-03-23T13:18:28;22.00;59.80
58933;DHT22;44716;51.022;6.818;2024-03-23T13:20:54;22.00;59.80
58933;DHT22;44716;51.022;6.818;2024-03-23T13:23:19;22.00;59.80
58933;DHT22;44716;51.022;6.818;2024-03-23T13:25:52;22.00;59.80
58933;DHT22;44716;51.022;6.818;2024-03-23T13:28:18;22.00;59.70
58933;DHT22;44716;51.022;6.818;2024-03-23T13:30:51;22.00;59.70
58933;DHT22;44716;51.022;6.818;2024-03-23T13:33:16;22.00;59.70
58933;DHT22;44716;51.022;6.818;2024-03-23T13:35:48;22.00;59.60
58933;DHT22;44716;51.022;6.818;2024-03-23T13:38:14;22.00;59.70
58933;DHT22;44716;51.022;6.818;2024-03-23T13:40:48;22.00;59.60
58933;DHT22;44716;51.022;6.818;2024-03-23T13:43:14;22.00;59.70
58933;DHT22;44716;51.022;6.818;2024-03-23T13:45:39;21.90;59.90
58933;DHT22;44716;51.022;6.818;2024-03-23T13:48:05;21.90;59.90
58933;DHT22;44716;51.022;6.818;2024-03-23T13:50:31;21.90;59.90
58933;DHT22;44716;51.022;6.818;2024-03-23T13:52:56;21.90;59.70
58933;DHT22;44716;51.022;6.818;2024-03-23T13:55:21;21.90;59.70
58933;DHT22;44716;51.022;6.818;2024-03-23T13:57:47;22.00;59.70
58933;DHT22;44716;51.022;6.818;2024-03-23T14:00:12;21.90;59.70
58933;DHT22;44716;51.022;6.818;2024-03-23T14:02:38;21.90;59.50
58933;DHT22;44716;51.022;6.818;2024-03-23T14:05:04;21.90;59.60
58933;DHT22;44716;51.022;6.818;2024-03-23T14:07:29;21.90;59.60
58933;DHT22;44716;51.022;6.818;2024-03-23T14:09:55;21.90;59.60
58933;DHT22;44716;51.022;6.818;2024-03-23T14:12:20;22.00;59.70
58933;DHT22;44716;51.022;6.818;2024-03-23T14:14:46;21.80;59.70
58933;DHT22;44716;51.022;6.818;2024-03-23T14:17:12;21.80;59.80
58933;DHT22;44716;51.022;6.818;2024-03-23T14:19:39;21.80;59.80
58933;DHT22;44716;51.022;6.818;2024-03-23T14:22:05;21.80;59.80
58933;DHT22;44716;51.022;6.818;2024-03-23T14:24:32;21.90;59.70
58933;DHT22;44716;51.022;6.818;2024-03-23T14:26:58;21.90;59.70
58933;DHT22;44716;51.022;6.818;2024-03-23T14:29:23;22.00;59.70
58933;DHT22;44716;51.022;6.818;2024-03-23T14:31:49;22.00;59.50
58933;DHT22;44716;51.022;6.818;2024-03-23T14:34:14;22.00;59.50
58933;DHT22;44716;51.022;6.818;2024-03-23T14:36:40;21.90;59.50
58933;DHT22;44716;51.022;6.818;2024-03-23T14:39:05;21.90;59.50
58933;DHT22;44716;51.022;6.818;2024-03-23T14:41:31;21.90;59.60
58933;DHT22;44716;51.022;6.818;2024-03-23T14:43:57;21.80;59.50
58933;DHT22;44716;51.022;6.818;2024-03-23T14:46:22;21.80;59.60
58933;DHT22;44716;51.022;6.818;2024-03-23T14:48:48;21.80;59.60
58933;DHT22;44716;51.022;6.818;2024-03-23T14:51:14;21.80;59.70
58933;DHT22;44716;51.022;6.818;2024-03-23T14:53:40;21.80;59.60
58933;DHT22;44716;51.022;6.818;2024-03-23T14:56:07;21.80;59.70
58933;DHT22;44716;51.022;6.818;2024-03-23T14:58:33;21.80;59.70
58933;DHT22;44716;51.022;6.818;2024-03-23T15:01:02;21.80;59.70
58933;DHT22;44716;51.022;6.818;2024-03-23T15:03:28;21.80;59.60
58933;DHT22;44716;51.022;6.818;2024-03-23T15:05:56;21.90;59.60
58933;DHT22;44716;51.022;6.818;2024-03-23T15:08:22;21.80;59.60
58933;DHT22;44716;51.022;6.818;2024-03-23T15:10:48;21.80;59.50
58933;DHT22;44716;51.022;6.818;2024-03-23T15:13:14;21.80;59.70
58933;DHT22;44716;51.022;6.818;2024-03-23T15:15:43;21.80;59.70
58933;DHT22;44716;51.022;6.818;2024-03-23T15:18:14;21.90;59.60
58933;DHT22;44716;51.022;6.818;2024-03-23T15:20:54;21.90;59.60
58933;DHT22;44716;51.022;6.818;2024-03-23T15:23:19;21.90;59.60
58933;DHT22;44716;51.022;6.818;2024-03-23T15:25:45;22.00;59.50
58933;DHT22;44716;51.022;6.818;2024-03-23T15:28:10;22.00;59.50
58933;DHT22;44716;51.022;6.818;2024-03-23T15:30:36;22.00;59.40
58933;DHT22;44716;51.022;6.818;2024-03-23T15:33:01;22.10;59.40
58933;DHT22;44716;51.022;6.818;2024-03-23T15:35:27;22.00;59.40
58933;DHT22;44716;51.022;6.818;2024-03-23T15:37:53;22.00;59.40
58933;DHT22;44716;51.022;6.818;2024-03-23T15:40:18;22.00;59.50
58933;DHT22;44716;51.022;6.818;2024-03-23T15:42:44;22.10;59.60
58933;DHT22;44716;51.022;6.818;2024-03-23T15:45:09;22.00;59.60
58933;DHT22;44716;51.022;6.818;2024-03-23T15:47:35;22.00;59.70
58933;DHT22;44716;51.022;6.818;2024-03-23T15:50:00;22.00;59.80
58933;DHT22;44716;51.022;6.818;2024-03-23T15:52:26;22.00;59.70
58933;DHT22;44716;51.022;6.818;2024-03-23T15:54:51;22.00;59.50
58933;DHT22;44716;51.022;6.818;2024-03-23T15:57:17;22.10;59.50
58933;DHT22;44716;51.022;6.818;2024-03-23T15:59:43;22.10;59.40
58933;DHT22;44716;51.022;6.818;2024-03-23T16:02:09;22.10;59.40
58933;DHT22;44716;51.022;6.818;2024-03-23T16:04:35;22.10;59.40
58933;DHT22;44716;51.022;6.818;2024-03-23T16:07:01;22.00;59.30
58933;DHT22;44716;51.022;6.818;2024-03-23T16:09:26;22.10;59.30
58933;DHT22;44716;51.022;6.818;2024-03-23T16:11:53;22.00;59.30
58933;DHT22;44716;51.022;6.818;2024-03-23T16:14:19;22.00;59.40
58933;DHT22;44716;51.022;6.818;2024-03-23T16:16:44;22.00;59.40
58933;DHT22;44716;51.022;6.818;2024-03-23T16:19:10;22.00;59.40
58933;DHT22;44716;51.022;6.818;2024-03-23T16:21:37;22.00;59.30
58933;DHT22;44716;51.022;6.818;2024-03-23T16:24:03;22.00;59.20
58933;DHT22;44716;51.022;6.818;2024-03-23T16:26:28;22.00;59.10
58933;DHT22;44716;51.022;6.818;2024-03-23T16:28:54;22.10;59.20
58933;DHT22;44716;51.022;6.818;2024-03-23T16:31:19;22.10;59.30